createdAt,value
2023-01-09T00:01:54.609Z,2.67
2023-01-09T00:04:44.684Z,2.69
2023-01-09T00:07:34.470Z,2.70
2023-01-09T00:10:46.345Z,2.68
2023-01-09T00:13:38.565Z,2.69
2023-01-09T00:16:31.967Z,2.70
2023-01-09T00:19:22.116Z,2.67
2023-01-09T00:22:14.145Z,2.66
2023-01-09T00:25:08.953Z,2.63
2023-01-09T00:28:03.670Z,2.61
2023-01-09T00:31:02.236Z,2.61
2023-01-09T00:34:20.120Z,2.63
2023-01-09T00:37:21.647Z,2.63
2023-01-09T00:40:16.328Z,2.63
2023-01-09T00:42:50.558Z,2.64
2023-01-09T00:45:45.267Z,2.65
2023-01-09T00:48:43.765Z,2.66
2023-01-09T00:51:30.182Z,2.67
2023-01-09T00:54:25.290Z,2.69
2023-01-09T00:57:17.590Z,2.71
2023-01-09T01:00:13.739Z,2.71
2023-01-09T01:03:06.322Z,2.71
2023-01-09T01:06:14.547Z,2.70
2023-01-09T01:09:10.047Z,2.64
2023-01-09T01:12:11.314Z,2.57
2023-01-09T01:14:57.717Z,2.53
2023-01-09T01:17:50.797Z,2.52
2023-01-09T01:20:45.391Z,2.52
2023-01-09T01:23:39.983Z,2.53
2023-01-09T01:26:29.891Z,2.54
2023-01-09T01:29:24.812Z,2.55
2023-01-09T01:33:01.018Z,2.57
2023-01-09T01:35:30.283Z,2.61
2023-01-09T01:38:20.479Z,2.63
2023-01-09T01:41:29.515Z,2.64
2023-01-09T01:44:54.570Z,2.68
2023-01-09T01:47:55.160Z,2.68
2023-01-09T01:50:50.275Z,2.66
2023-01-09T01:53:36.530Z,2.62
2023-01-09T01:56:32.807Z,2.58
2023-01-09T01:59:28.010Z,2.59
2023-01-09T02:02:28.260Z,2.59
2023-01-09T02:05:19.841Z,2.61
2023-01-09T02:08:21.549Z,2.61
2023-01-09T02:11:19.750Z,2.63
2023-01-09T02:14:14.176Z,2.66
2023-01-09T02:17:25.962Z,2.69
2023-01-09T02:20:41.915Z,2.71
2023-01-09T02:24:16.432Z,2.76
2023-01-09T02:27:54.563Z,2.80
2023-01-09T02:30:49.979Z,2.82
2023-01-09T02:33:54.567Z,2.82
2023-01-09T02:36:54.883Z,2.80
2023-01-09T02:39:55.242Z,2.79
2023-01-09T02:42:46.596Z,2.79
2023-01-09T02:45:41.557Z,2.80
2023-01-09T02:48:33.843Z,2.83
2023-01-09T02:51:36.264Z,2.86
2023-01-09T02:54:43.308Z,2.90
2023-01-09T02:58:05.688Z,2.94
2023-01-09T03:01:10.079Z,2.99
2023-01-09T03:04:10.879Z,3.01
2023-01-09T03:07:10.536Z,3.00
2023-01-09T03:10:25.810Z,2.99
2023-01-09T03:13:19.692Z,2.96
2023-01-09T03:16:19.457Z,2.92
2023-01-09T03:19:14.160Z,2.91
2023-01-09T03:22:10.850Z,2.90
2023-01-09T03:25:00.293Z,2.93
2023-01-09T03:27:56.363Z,2.94
2023-01-09T03:30:49.325Z,2.96
2023-01-09T03:33:43.936Z,2.98
2023-01-09T03:36:27.921Z,2.99
2023-01-09T03:39:17.191Z,3.00
2023-01-09T03:42:32.470Z,2.98
2023-01-09T03:45:45.039Z,2.98
2023-01-09T03:48:38.730Z,2.97
2023-01-09T03:51:29.923Z,2.95
2023-01-09T03:54:20.036Z,2.94
2023-01-09T03:57:20.440Z,2.95
2023-01-09T04:00:27.118Z,2.94
2023-01-09T04:03:21.296Z,2.96
2023-01-09T04:06:00.580Z,3.00
2023-01-09T04:08:56.099Z,3.02
2023-01-09T04:11:55.817Z,3.03
2023-01-09T04:14:52.860Z,3.02
2023-01-09T04:17:47.136Z,2.97
2023-01-09T04:20:39.256Z,2.95
2023-01-09T04:23:32.704Z,2.93
2023-01-09T04:26:24.783Z,2.92
2023-01-09T04:29:16.675Z,2.94
2023-01-09T04:32:06.962Z,2.96
2023-01-09T04:34:57.470Z,2.97
2023-01-09T04:37:56.186Z,2.99
2023-01-09T04:40:50.587Z,3.01
2023-01-09T04:44:01.627Z,3.04
2023-01-09T04:46:58.834Z,3.07
2023-01-09T04:49:53.625Z,3.07
2023-01-09T04:52:48.330Z,3.04
2023-01-09T04:55:38.289Z,3.01
2023-01-09T04:58:38.995Z,2.98
2023-01-09T05:01:34.602Z,2.98
2023-01-09T05:04:29.744Z,2.98
2023-01-09T05:07:31.387Z,3.00
2023-01-09T05:10:22.954Z,3.01
2023-01-09T05:13:23.026Z,3.04
2023-01-09T05:17:19.989Z,3.08
2023-01-09T05:19:32.492Z,3.13
2023-01-09T05:22:38.346Z,3.16
2023-01-09T05:25:38.489Z,3.16
2023-01-09T05:28:39.315Z,3.18
2023-01-09T05:31:37.245Z,3.19
2023-01-09T05:34:28.285Z,3.17
2023-01-09T05:37:26.647Z,3.15
2023-01-09T05:40:29.216Z,3.14
2023-01-09T05:43:23.150Z,3.16
2023-01-09T05:46:34.058Z,3.18
2023-01-09T05:49:25.315Z,3.20
2023-01-09T05:52:26.394Z,3.22
2023-01-09T05:55:21.528Z,3.24
2023-01-09T05:58:05.608Z,3.24
2023-01-09T06:01:00.080Z,3.25
2023-01-09T06:04:18.822Z,3.23
2023-01-09T06:07:09.594Z,3.21
2023-01-09T06:10:00.196Z,3.18
2023-01-09T06:13:19.672Z,3.15
2023-01-09T06:16:14.627Z,3.13
2023-01-09T06:19:10.903Z,3.15
2023-01-09T06:22:05.110Z,3.16
2023-01-09T06:24:57.475Z,3.16
2023-01-09T06:27:47.652Z,3.20
2023-01-09T06:30:42.508Z,3.24
2023-01-09T06:33:33.082Z,3.26
2023-01-09T06:37:43.159Z,3.24
2023-01-09T06:40:38.112Z,3.23
2023-01-09T06:43:29.053Z,3.23
2023-01-09T06:46:21.878Z,3.25
2023-01-09T06:49:13.917Z,3.26
2023-01-09T06:52:06.746Z,3.27
2023-01-09T06:55:00.808Z,3.28
2023-01-09T06:57:54.890Z,3.29
2023-01-09T07:00:46.284Z,3.31
2023-01-09T07:03:39.509Z,3.33
2023-01-09T07:06:35.690Z,3.32
2023-01-09T07:09:26.071Z,3.30
2023-01-09T07:12:17.724Z,3.27
2023-01-09T07:15:12.293Z,3.24
2023-01-09T07:18:05.828Z,3.21
2023-01-09T07:20:58.256Z,3.21
2023-01-09T07:24:02.531Z,3.21
2023-01-09T07:26:53.351Z,3.22
2023-01-09T07:29:44.297Z,3.25
2023-01-09T07:32:34.935Z,3.30
2023-01-09T07:35:26.271Z,3.33
2023-01-09T07:38:18.617Z,3.36
2023-01-09T07:41:08.539Z,3.39
2023-01-09T07:44:02.908Z,3.40
2023-01-09T07:46:57.256Z,3.40
2023-01-09T07:50:36.244Z,3.40
2023-01-09T07:52:59.146Z,3.43
2023-01-09T07:55:54.472Z,3.45
2023-01-09T07:58:47.948Z,3.47
2023-01-09T08:01:40.620Z,3.50
2023-01-09T08:04:30.618Z,3.52
2023-01-09T08:07:26.708Z,3.55
2023-01-09T08:10:19.403Z,3.59
2023-01-09T08:13:14.994Z,3.62
2023-01-09T08:16:10.028Z,3.63
2023-01-09T08:19:01.598Z,3.63
2023-01-09T08:21:56.206Z,3.62
2023-01-09T08:24:46.823Z,3.65
2023-01-09T08:27:37.106Z,3.69
2023-01-09T08:30:33.045Z,3.75
2023-01-09T08:33:24.341Z,3.83
2023-01-09T08:36:15.749Z,3.90
2023-01-09T08:39:06.064Z,3.95
2023-01-09T08:42:16.362Z,4.00
2023-01-09T08:45:32.759Z,4.04
2023-01-09T08:48:22.500Z,4.05
2023-01-09T08:51:13.405Z,4.07
2023-01-09T08:54:04.832Z,4.08
2023-01-09T08:57:02.064Z,4.08
2023-01-09T08:59:55.965Z,4.09
2023-01-09T09:02:53.506Z,4.11
2023-01-09T09:05:46.091Z,4.10
2023-01-09T09:08:39.667Z,4.08
2023-01-09T09:11:32.955Z,4.06
2023-01-09T09:14:42.405Z,4.05
2023-01-09T09:17:33.147Z,4.06
2023-01-09T09:20:28.408Z,4.09
2023-01-09T09:23:18.832Z,4.14
2023-01-09T09:26:12.845Z,4.22
2023-01-09T09:29:02.475Z,4.26
2023-01-09T09:32:00.749Z,4.30
2023-01-09T09:35:04.310Z,4.32
2023-01-09T09:38:48.738Z,4.31
2023-01-09T09:41:55.962Z,4.30
2023-01-09T09:45:46.969Z,4.31
2023-01-09T09:49:20.347Z,4.35
2023-01-09T09:53:14.261Z,4.37
2023-01-09T09:55:42.644Z,4.40
2023-01-09T09:58:37.813Z,4.44
2023-01-09T10:01:42.265Z,4.44
2023-01-09T10:04:38.351Z,4.46
2023-01-09T10:07:48.879Z,4.47
2023-01-09T10:10:44.148Z,4.50
2023-01-09T10:13:45.112Z,4.54
2023-01-09T10:17:18.956Z,4.56
2023-01-09T10:20:23.567Z,4.53
2023-01-09T10:23:44.807Z,4.48
2023-01-09T10:26:48.113Z,4.44
2023-01-09T10:29:59.261Z,4.40
2023-01-09T10:33:02.769Z,4.38
2023-01-09T10:36:31.226Z,4.36
2023-01-09T10:39:43.585Z,4.37
2023-01-09T10:42:54.707Z,4.41
2023-01-09T10:45:53.585Z,4.44
2023-01-09T10:49:01.280Z,4.47
2023-01-09T10:52:24.478Z,4.49
2023-01-09T10:55:23.409Z,4.52
2023-01-09T10:59:03.879Z,4.50
2023-01-09T11:01:30.357Z,4.50
2023-01-09T11:04:29.432Z,4.51
2023-01-09T11:07:26.856Z,4.53
2023-01-09T11:10:23.899Z,4.56
2023-01-09T11:13:19.735Z,4.60
2023-01-09T11:16:21.873Z,4.64
2023-01-09T11:19:21.652Z,4.71
2023-01-09T11:22:18.405Z,4.75
2023-01-09T11:25:14.850Z,4.79
2023-01-09T11:28:17.231Z,4.79
2023-01-09T11:31:31.401Z,4.77
2023-01-09T11:34:25.743Z,4.74
2023-01-09T11:37:26.963Z,4.72
2023-01-09T11:40:23.044Z,4.70
2023-01-09T11:43:16.930Z,4.68
2023-01-09T11:46:11.818Z,4.68
2023-01-09T11:49:24.922Z,4.69
2023-01-09T11:52:25.512Z,4.70
2023-01-09T11:55:48.415Z,4.73
2023-01-09T11:59:23.152Z,4.79
2023-01-09T12:03:11.535Z,4.82
2023-01-09T12:06:55.647Z,4.85
2023-01-09T12:10:16.498Z,4.88
2023-01-09T12:13:24.562Z,4.87
2023-01-09T12:16:43.726Z,4.88
2023-01-09T12:20:36.954Z,4.91
2023-01-09T12:23:48.500Z,4.94
2023-01-09T12:26:53.791Z,4.95
2023-01-09T12:30:31.242Z,4.99
2023-01-09T12:33:42.377Z,5.06
2023-01-09T12:36:55.837Z,5.09
2023-01-09T12:40:09.618Z,5.12
2023-01-09T12:43:08.663Z,5.16
2023-01-09T12:46:21.011Z,5.16
2023-01-09T12:49:36.185Z,5.19
2023-01-09T12:52:35.956Z,5.19
2023-01-09T12:55:40.347Z,5.21
2023-01-09T12:58:43.535Z,5.23
2023-01-09T13:01:43.982Z,5.23
2023-01-09T13:04:40.013Z,5.23
2023-01-09T13:07:44.035Z,5.25
2023-01-09T13:10:44.013Z,5.27
2023-01-09T13:14:07.642Z,5.29
2023-01-09T13:17:10.693Z,5.31
2023-01-09T13:20:16.373Z,5.35
2023-01-09T13:23:19.475Z,5.38
2023-01-09T13:26:22.265Z,5.40
2023-01-09T13:29:39.686Z,5.41
2023-01-09T13:32:54.542Z,5.42
2023-01-09T13:36:00.161Z,5.44
2023-01-09T13:38:59.536Z,5.46
2023-01-09T13:42:39.860Z,5.48
2023-01-09T13:46:01.021Z,5.51
2023-01-09T13:48:57.308Z,5.54
2023-01-09T13:52:03.797Z,5.56
2023-01-09T13:55:45.128Z,5.58
2023-01-09T13:59:08.842Z,5.62
2023-01-09T14:02:46.296Z,5.64
2023-01-09T14:06:20.316Z,5.67
2023-01-09T14:09:33.685Z,5.69
2023-01-09T14:12:59.697Z,5.70
2023-01-09T14:16:21.143Z,5.73
2023-01-09T14:19:36.719Z,5.75
2023-01-09T14:26:26.333Z,5.79
2023-01-09T14:31:01.193Z,5.82
2023-01-09T14:34:23.178Z,5.84
2023-01-09T14:37:37.116Z,5.87
2023-01-09T14:40:59.627Z,5.88
2023-01-09T14:44:48.215Z,5.92
2023-01-09T14:48:29.519Z,5.96
2023-01-09T14:51:32.558Z,5.98
2023-01-09T14:54:37.107Z,5.99
2023-01-09T14:57:39.885Z,6.02
2023-01-09T15:00:30.085Z,6.05
2023-01-09T15:03:30.095Z,6.06
2023-01-09T15:07:45.228Z,6.05
2023-01-09T15:10:53.681Z,6.07
2023-01-09T15:14:07.743Z,6.09
2023-01-09T15:17:26.208Z,6.10
2023-01-09T15:20:28.080Z,6.13
2023-01-09T15:23:36.419Z,6.15
2023-01-09T15:26:38.887Z,6.16
2023-01-09T15:29:51.452Z,6.18
2023-01-09T15:34:13.135Z,6.19
2023-01-09T15:37:03.647Z,6.22
2023-01-09T15:40:27.213Z,6.24
2023-01-09T15:43:48.157Z,6.27
2023-01-09T15:46:49.621Z,6.29
2023-01-09T15:49:42.265Z,6.30
2023-01-09T15:52:34.900Z,6.32
2023-01-09T15:55:34.894Z,6.34
2023-01-09T15:58:32.673Z,6.34
2023-01-09T16:01:36.679Z,6.32
2023-01-09T16:04:29.278Z,6.31
2023-01-09T16:07:31.997Z,6.30
2023-01-09T16:10:34.923Z,6.30
2023-01-09T16:13:44.370Z,6.32
2023-01-09T16:17:08.564Z,6.34
2023-01-09T16:20:37.343Z,6.36
2023-01-09T16:24:18.353Z,6.39
2023-01-09T16:27:31.437Z,6.41
2023-01-09T16:30:28.188Z,6.44
2023-01-09T16:33:25.055Z,6.45
2023-01-09T16:36:43.208Z,6.47
2023-01-09T16:39:57.315Z,6.49
2023-01-09T16:43:11.018Z,6.52
2023-01-09T16:46:06.883Z,6.55
2023-01-09T16:49:26.005Z,6.56
2023-01-09T16:52:40.785Z,6.57
2023-01-09T16:56:10.180Z,6.57
2023-01-09T16:59:24.284Z,6.59
2023-01-09T17:02:28.918Z,6.63
2023-01-09T17:05:21.732Z,6.64
2023-01-09T17:08:25.018Z,6.65
2023-01-09T17:11:41.933Z,6.65
2023-01-09T17:14:35.914Z,6.67
2023-01-09T17:17:31.776Z,6.68
2023-01-09T17:20:25.362Z,6.69
2023-01-09T17:23:21.040Z,6.70
2023-01-09T17:26:39.920Z,6.71
2023-01-09T17:29:49.924Z,6.74
2023-01-09T17:32:51.411Z,6.76
2023-01-09T17:35:45.018Z,6.78
2023-01-09T17:38:38.957Z,6.81
2023-01-09T17:41:32.110Z,6.82
2023-01-09T17:44:29.599Z,6.86
2023-01-09T17:47:36.025Z,6.87
2023-01-09T17:50:31.595Z,6.88
2023-01-09T17:53:25.692Z,6.90
2023-01-09T17:56:15.482Z,6.91
2023-01-09T17:59:10.031Z,6.93
2023-01-09T18:02:00.095Z,6.95
2023-01-09T18:04:51.436Z,6.98
2023-01-09T18:07:40.973Z,6.99
2023-01-09T18:10:39.956Z,7.00
2023-01-09T18:15:11.617Z,7.00
2023-01-09T18:17:16.274Z,6.96
2023-01-09T18:20:14.538Z,6.93
2023-01-09T18:23:11.708Z,6.93
2023-01-09T18:26:23.027Z,6.91
2023-01-09T18:29:15.127Z,6.90
2023-01-09T18:32:06.382Z,6.94
2023-01-09T18:34:57.476Z,6.96
2023-01-09T18:37:40.176Z,7.00
2023-01-09T18:40:33.781Z,7.04
2023-01-09T18:43:24.319Z,7.07
2023-01-09T18:46:24.170Z,7.12
2023-01-09T18:49:15.732Z,7.14
2023-01-09T18:52:07.635Z,7.11
2023-01-09T18:55:00.491Z,7.06
2023-01-09T18:58:27.580Z,6.99
2023-01-09T19:00:54.603Z,6.92
2023-01-09T19:03:47.469Z,6.90
2023-01-09T19:06:39.086Z,6.90
2023-01-09T19:09:29.473Z,6.90
2023-01-09T19:12:19.923Z,6.90
2023-01-09T19:15:12.881Z,6.92
2023-01-09T19:19:42.639Z,6.94
2023-01-09T19:23:27.542Z,6.94
2023-01-09T19:24:26.553Z,6.95
2023-01-09T19:27:16.512Z,6.95
2023-01-09T19:31:00.512Z,6.93
2023-01-09T19:33:24.018Z,6.91
2023-01-09T19:36:15.019Z,6.90
2023-01-09T19:39:06.432Z,6.89
2023-01-09T19:41:58.072Z,6.90
2023-01-09T19:44:48.042Z,6.88
2023-01-09T19:47:37.758Z,6.89
2023-01-09T19:50:28.343Z,6.90
2023-01-09T19:53:20.309Z,6.89
2023-01-09T19:56:17.678Z,6.88
2023-01-09T19:59:08.788Z,6.87
2023-01-09T20:05:16.443Z,6.82
2023-01-09T20:08:11.164Z,6.81
2023-01-09T20:11:04.980Z,6.82
2023-01-09T20:14:03.630Z,6.85
2023-01-09T20:17:03.862Z,6.86
2023-01-09T20:19:46.758Z,6.86
2023-01-09T20:22:36.813Z,6.86
2023-01-09T20:25:27.074Z,6.87
2023-01-09T20:28:18.265Z,6.84
2023-01-09T20:31:11.854Z,6.80
2023-01-09T20:34:03.375Z,6.76
2023-01-09T20:36:56.577Z,6.77
2023-01-09T20:39:47.376Z,6.78
2023-01-09T20:43:25.480Z,6.77
2023-01-09T20:45:49.610Z,6.73
2023-01-09T20:48:41.776Z,6.68
2023-01-09T20:51:31.165Z,6.64
2023-01-09T20:54:23.352Z,6.57
2023-01-09T20:57:13.583Z,6.53
2023-01-09T21:00:04.784Z,6.52
2023-01-09T21:02:56.731Z,6.49
2023-01-09T21:05:46.616Z,6.46
2023-01-09T21:08:40.779Z,6.45
2023-01-09T21:11:25.628Z,6.45
2023-01-09T21:14:15.524Z,6.46
2023-01-09T21:17:06.795Z,6.49
2023-01-09T21:19:57.470Z,6.48
2023-01-09T21:22:49.361Z,6.48
2023-01-09T21:25:44.272Z,6.47
2023-01-09T21:28:42.710Z,6.44
2023-01-09T21:31:40.373Z,6.43
2023-01-09T21:34:46.813Z,6.42
2023-01-09T21:37:37.930Z,6.42
2023-01-09T21:40:28.695Z,6.41
2023-01-09T21:43:44.121Z,6.40
2023-01-09T21:46:58.070Z,6.43
2023-01-09T21:49:48.045Z,6.40
2023-01-09T21:52:38.230Z,6.35
2023-01-09T21:55:31.806Z,6.32
2023-01-09T21:58:23.813Z,6.28
2023-01-09T22:01:16.889Z,6.23
2023-01-09T22:04:11.261Z,6.21
2023-01-09T22:07:12.288Z,6.21
2023-01-09T22:10:04.323Z,6.21
2023-01-09T22:13:17.581Z,6.21
2023-01-09T22:16:10.570Z,6.24
2023-01-09T22:19:03.159Z,6.27
2023-01-09T22:21:55.405Z,6.30
2023-01-09T22:24:59.409Z,6.31
2023-01-09T22:27:50.526Z,6.32
2023-01-09T22:30:43.497Z,6.32
2023-01-09T22:33:33.897Z,6.30
2023-01-09T22:36:25.241Z,6.27
2023-01-09T22:39:21.611Z,6.26
2023-01-09T22:42:13.607Z,6.28
2023-01-09T22:45:25.261Z,6.29
2023-01-09T22:48:18.430Z,6.28
2023-01-09T22:50:51.105Z,6.23
2023-01-09T22:53:43.588Z,6.19
2023-01-09T22:56:36.808Z,6.12
2023-01-09T22:59:32.269Z,6.07
2023-01-09T23:02:33.869Z,6.06
2023-01-09T23:05:24.535Z,6.02
2023-01-09T23:08:20.576Z,6.04
2023-01-09T23:11:11.133Z,6.05
2023-01-09T23:14:01.500Z,6.04
2023-01-09T23:16:57.605Z,6.05
2023-01-09T23:19:51.753Z,6.07
2023-01-09T23:22:41.607Z,6.05
2023-01-09T23:25:31.395Z,6.03
2023-01-09T23:28:24.741Z,6.00
2023-01-09T23:31:15.537Z,5.96
2023-01-09T23:34:08.914Z,5.90
2023-01-09T23:37:00.153Z,5.86
2023-01-09T23:39:56.442Z,5.88
2023-01-09T23:43:05.302Z,5.89
2023-01-09T23:45:59.413Z,5.90
2023-01-09T23:49:04.986Z,5.94
2023-01-09T23:51:55.951Z,5.90
2023-01-09T23:54:57.996Z,5.93
2023-01-09T23:57:56.094Z,5.99
